Ever Loading — 2HDG4 — position and weather

sailwx.info

Track history (hours):
 
Tides and Currents Weather Stations Pressure Air Temp Water Temp Dewpoint Dewpoint Depression Visibility Wind Speed Wind Dir Waves Ship Positions

Ever Loading

Last reported at 2017-Dec-08 08:01 UTC. Time now 2017-Dec-18 20:38 UTC.
Position N 36°23' E 014°50'.
Warning: this ship's position is 10 days out of date.

Length 335 m; draft 12 m.

Type: Ship (hazmat cat A). MMSI: 235102681.

Date/timePositionNaut miles runAvg speedWind from/ knotsBaromVisibWave heightAir tempDewpointWater temp
2017-Dec-08 08:01N 36°23' E 014°50'117.5
2017-Dec-08 07:57N 36°24' E 014°48'817.5
2017-Dec-08 07:30N 36°26' E 014°39'816.9
2017-Dec-08 07:00N 36°29' E 014°29'816.8
2017-Dec-08 06:30N 36°31' E 014°19'816.9
2017-Dec-08 06:00N 36°34' E 014°09'816.8
2017-Dec-08 05:30N 36°36' E 013°59'916.8
2017-Dec-08 05:00N 36°39' E 013°49'816.7
2017-Dec-08 04:30N 36°42' E 013°40'816.8
2017-Dec-08 04:00N 36°45' E 013°30'  
2017-Dec-03 01:35N 40°11' W 028°31'117.7
2017-Dec-03 01:30N 40°12' W 028°32'1817.5
2017-Dec-03 00:28N 40°14' W 028°56'817.4
2017-Dec-03 00:00N 40°16' W 029°06'  
Track history (hours):
 
Tides and Currents Weather Stations Pressure Air Temp Water Temp Dewpoint Dewpoint Depression Visibility Wind Speed Wind Dir Waves Ship Positions

Ever Loading

Last reported at 2017-Dec-08 08:01 UTC. Time now 2017-Dec-18 20:38 UTC.
Position N 36°23' E 014°50'.
Warning: this ship's position is 10 days out of date.

Length 335 m; draft 12 m.

Type: Ship (hazmat cat A). MMSI: 235102681.

Date/timePositionNaut miles runAvg speedWind from/ knotsBaromVisibWave heightAir tempDewpointWater temp
2017-Dec-08 08:01N 36°23' E 014°50'117.5
2017-Dec-08 07:57N 36°24' E 014°48'817.5
2017-Dec-08 07:30N 36°26' E 014°39'816.9
2017-Dec-08 07:00N 36°29' E 014°29'816.8
2017-Dec-08 06:30N 36°31' E 014°19'816.9
2017-Dec-08 06:00N 36°34' E 014°09'816.8
2017-Dec-08 05:30N 36°36' E 013°59'916.8
2017-Dec-08 05:00N 36°39' E 013°49'816.7
2017-Dec-08 04:30N 36°42' E 013°40'816.8
2017-Dec-08 04:00N 36°45' E 013°30'  
2017-Dec-03 01:35N 40°11' W 028°31'117.7
2017-Dec-03 01:30N 40°12' W 028°32'1817.5
2017-Dec-03 00:28N 40°14' W 028°56'817.4
2017-Dec-03 00:00N 40°16' W 029°06'  

Dump ship's entire track history